PRSAU GVAC-SBBE
Flight info
| Callsign | PRSAU |
|---|---|
| Flight time | 4h 49m |
| Altitude | 38000 |
| Route | LISOS1A MELUT UW46 KEPAS DCT EGIMI UL540 PAPIG UZ7 LIVED |
| Aircraft | E190/M-SDE3GILORVW/S |
Departure
| Time | 2026-05-07 21:42 |
|---|---|
| Airport | Amílcar Cabral International Airport (GVAC) |
Arrival
| Time | 2026-05-08 02:32 |
|---|---|
| Airport | Val de Cans/Júlio Cezar Ribeiro International Airport (SBBE) |
| Time | Latitude | Longitude | Altitude | Speed | Heading |
|---|---|---|---|---|---|
| 2026-05-07 21:27 | 16.73144 | -22.94511 | 188 ft | 0 kts | 56° |
| 2026-05-07 21:38 | 16.73144 | -22.94510 | 188 ft | 0 kts | 49° |
| 2026-05-07 21:38 | 16.73147 | -22.94509 | 188 ft | 0 kts | 5° |
| 2026-05-07 21:38 | 16.73155 | -22.94515 | 188 ft | 2 kts | 309° |
| 2026-05-07 21:38 | 16.73161 | -22.94538 | 188 ft | 4 kts | 274° |
| 2026-05-07 21:39 | 16.73161 | -22.94577 | 188 ft | 6 kts | 255° |
| 2026-05-07 21:39 | 16.73118 | -22.94594 | 188 ft | 8 kts | 178° |
| 2026-05-07 21:39 | 16.73070 | -22.94629 | 188 ft | 9 kts | 236° |
| 2026-05-07 21:39 | 16.73020 | -22.94687 | 188 ft | 11 kts | 200° |
| 2026-05-07 21:40 | 16.72930 | -22.94691 | 187 ft | 14 kts | 180° |
| 2026-05-07 21:40 | 16.72814 | -22.94691 | 185 ft | 17 kts | 179° |
| 2026-05-07 21:40 | 16.72685 | -22.94690 | 185 ft | 19 kts | 179° |
| 2026-05-07 21:40 | 16.72545 | -22.94688 | 182 ft | 17 kts | 181° |
| 2026-05-07 21:41 | 16.72453 | -22.94689 | 181 ft | 13 kts | 186° |
| 2026-05-07 21:41 | 16.72407 | -22.94766 | 179 ft | 15 kts | 268° |
| 2026-05-07 21:41 | 16.72424 | -22.94875 | 178 ft | 15 kts | 324° |
| 2026-05-07 21:41 | 16.72546 | -22.94887 | 178 ft | 28 kts | 359° |
| 2026-05-07 21:42 | 16.73040 | -22.94891 | 188 ft | 109 kts | 360° |
| 2026-05-07 21:42 | 16.74031 | -22.94902 | 256 ft | 165 kts | 0° |
| 2026-05-07 21:42 | 16.75264 | -22.94937 | 775 ft | 189 kts | 2° |
| 2026-05-07 21:42 | 16.76626 | -22.94934 | 1448 ft | 203 kts | 2° |
| 2026-05-07 21:43 | 16.78054 | -22.94935 | 2255 ft | 210 kts | 1° |
| 2026-05-07 21:43 | 16.79499 | -22.94941 | 3242 ft | 208 kts | 0° |
| 2026-05-07 21:43 | 16.80924 | -22.94948 | 4162 ft | 206 kts | 359° |
| 2026-05-07 21:43 | 16.82352 | -22.94956 | 4956 ft | 209 kts | 358° |
| 2026-05-07 21:44 | 16.83819 | -22.94966 | 5675 ft | 215 kts | 357° |
| 2026-05-07 21:44 | 16.85313 | -22.95001 | 6357 ft | 218 kts | 346° |
| 2026-05-07 21:44 | 16.86600 | -22.95751 | 6983 ft | 217 kts | 304° |
| 2026-05-07 21:44 | 16.87059 | -22.97209 | 7654 ft | 218 kts | 271° |
| 2026-05-07 21:45 | 16.87060 | -22.98754 | 7952 ft | 217 kts | 270° |
| 2026-05-07 21:45 | 16.87053 | -23.00357 | 7979 ft | 219 kts | 270° |
| 2026-05-07 21:45 | 16.87044 | -23.01928 | 7987 ft | 217 kts | 270° |
| 2026-05-07 21:45 | 16.87034 | -23.03499 | 7984 ft | 218 kts | 270° |
| 2026-05-07 21:46 | 16.87023 | -23.05088 | 7991 ft | 218 kts | 270° |
| 2026-05-07 21:46 | 16.87012 | -23.06667 | 7990 ft | 217 kts | 270° |
| 2026-05-07 21:46 | 16.86988 | -23.08253 | 7997 ft | 218 kts | 265° |
| 2026-05-07 21:46 | 16.86825 | -23.09886 | 8342 ft | 235 kts | 264° |
| 2026-05-07 21:47 | 16.86664 | -23.11551 | 9120 ft | 231 kts | 264° |
| 2026-05-07 21:47 | 16.86510 | -23.13195 | 9959 ft | 226 kts | 264° |
| 2026-05-07 21:47 | 16.86360 | -23.14814 | 10676 ft | 225 kts | 264° |
| 2026-05-07 21:47 | 16.86213 | -23.16422 | 11311 ft | 227 kts | 264° |
| 2026-05-07 21:48 | 16.86063 | -23.18070 | 11892 ft | 232 kts | 264° |
| 2026-05-07 21:48 | 16.85910 | -23.19756 | 12503 ft | 236 kts | 264° |
| 2026-05-07 21:48 | 16.85756 | -23.21458 | 13110 ft | 240 kts | 264° |
| 2026-05-07 21:48 | 16.85598 | -23.23203 | 13733 ft | 243 kts | 264° |
| 2026-05-07 21:49 | 16.85440 | -23.24947 | 14325 ft | 247 kts | 264° |
| 2026-05-07 21:49 | 16.85277 | -23.26747 | 14921 ft | 250 kts | 264° |
| 2026-05-07 21:49 | 16.85113 | -23.28543 | 15490 ft | 253 kts | 264° |
| 2026-05-07 21:49 | 16.84946 | -23.30387 | 16064 ft | 256 kts | 264° |
| 2026-05-07 21:50 | 16.84779 | -23.32226 | 16611 ft | 259 kts | 264° |
| 2026-05-07 21:50 | 16.84606 | -23.34119 | 17128 ft | 263 kts | 264° |
| 2026-05-07 21:50 | 16.84434 | -23.36006 | 17652 ft | 266 kts | 264° |
| 2026-05-07 21:50 | 16.84257 | -23.37943 | 18202 ft | 268 kts | 264° |
| 2026-05-07 21:51 | 16.84082 | -23.39858 | 18736 ft | 269 kts | 264° |
| 2026-05-07 21:51 | 16.83905 | -23.41800 | 19241 ft | 271 kts | 264° |
| 2026-05-07 21:51 | 16.83724 | -23.43775 | 19772 ft | 272 kts | 265° |
| 2026-05-07 21:51 | 16.83545 | -23.45728 | 20277 ft | 273 kts | 265° |
| 2026-05-07 21:52 | 16.83365 | -23.47695 | 20748 ft | 275 kts | 265° |
| 2026-05-07 21:52 | 16.83182 | -23.49684 | 21211 ft | 277 kts | 265° |
| 2026-05-07 21:52 | 16.82998 | -23.51684 | 21676 ft | 279 kts | 265° |
| 2026-05-07 21:52 | 16.82812 | -23.53704 | 22126 ft | 280 kts | 265° |
| 2026-05-07 21:53 | 16.82626 | -23.55727 | 22576 ft | 282 kts | 266° |
| 2026-05-07 21:53 | 16.82438 | -23.57758 | 23031 ft | 283 kts | 266° |
| 2026-05-07 21:53 | 16.82250 | -23.59801 | 23435 ft | 285 kts | 266° |
| 2026-05-07 21:53 | 16.82059 | -23.61865 | 23830 ft | 288 kts | 266° |
| 2026-05-07 21:54 | 16.81866 | -23.63950 | 24225 ft | 290 kts | 265° |
| 2026-05-07 21:54 | 16.81458 | -23.66002 | 24633 ft | 293 kts | 256° |
| 2026-05-07 21:54 | 16.80928 | -23.68059 | 25026 ft | 295 kts | 257° |
| 2026-05-07 21:54 | 16.80399 | -23.70131 | 25441 ft | 296 kts | 256° |
| 2026-05-07 21:55 | 16.79866 | -23.72216 | 25807 ft | 299 kts | 257° |
| 2026-05-07 21:55 | 16.79336 | -23.74295 | 26172 ft | 301 kts | 257° |
| 2026-05-07 21:55 | 16.78795 | -23.76411 | 26549 ft | 302 kts | 257° |
| 2026-05-07 21:55 | 16.78251 | -23.78544 | 26920 ft | 304 kts | 257° |
| 2026-05-07 21:56 | 16.77712 | -23.80653 | 27283 ft | 305 kts | 257° |
| 2026-05-07 21:56 | 16.77161 | -23.82806 | 27659 ft | 306 kts | 257° |
| 2026-05-07 21:56 | 16.76612 | -23.84956 | 28000 ft | 308 kts | 257° |
| 2026-05-07 21:56 | 16.76063 | -23.87100 | 28330 ft | 310 kts | 257° |
| 2026-05-07 21:57 | 16.75504 | -23.89284 | 28637 ft | 312 kts | 257° |
| 2026-05-07 21:57 | 16.74948 | -23.91456 | 28950 ft | 314 kts | 257° |
| 2026-05-07 21:57 | 16.74382 | -23.93663 | 29290 ft | 315 kts | 257° |
| 2026-05-07 21:57 | 16.73817 | -23.95867 | 29650 ft | 314 kts | 257° |
| 2026-05-07 21:58 | 16.73256 | -23.98057 | 30025 ft | 313 kts | 257° |
| 2026-05-07 21:58 | 16.72692 | -24.00254 | 30393 ft | 312 kts | 257° |
| 2026-05-07 21:58 | 16.72132 | -24.02435 | 30752 ft | 311 kts | 257° |
| 2026-05-07 21:58 | 16.71575 | -24.04605 | 31095 ft | 310 kts | 256° |
| 2026-05-07 21:59 | 16.71017 | -24.06777 | 31376 ft | 311 kts | 256° |
| 2026-05-07 21:59 | 16.70460 | -24.08946 | 31693 ft | 310 kts | 256° |
| 2026-05-07 21:59 | 16.69900 | -24.11121 | 31965 ft | 311 kts | 256° |
| 2026-05-07 21:59 | 16.69343 | -24.13286 | 32239 ft | 312 kts | 256° |
| 2026-05-07 22:00 | 16.68786 | -24.15452 | 32551 ft | 311 kts | 256° |
| 2026-05-07 22:00 | 16.68225 | -24.17629 | 32864 ft | 310 kts | 256° |
| 2026-05-07 22:00 | 16.67666 | -24.19801 | 33181 ft | 310 kts | 256° |
| 2026-05-07 22:00 | 16.67107 | -24.21968 | 33425 ft | 311 kts | 256° |
| 2026-05-07 22:01 | 16.66543 | -24.24156 | 33651 ft | 314 kts | 256° |
| 2026-05-07 22:01 | 16.65977 | -24.26347 | 33912 ft | 314 kts | 256° |
| 2026-05-07 22:01 | 16.65410 | -24.28548 | 34217 ft | 314 kts | 256° |
| 2026-05-07 22:01 | 16.64849 | -24.30717 | 34535 ft | 313 kts | 256° |
| 2026-05-07 22:02 | 16.64279 | -24.32927 | 34764 ft | 315 kts | 256° |
| 2026-05-07 22:02 | 16.63714 | -24.35112 | 35031 ft | 315 kts | 256° |
| 2026-05-07 22:02 | 16.63142 | -24.37321 | 35286 ft | 315 kts | 256° |
| 2026-05-07 22:02 | 16.62576 | -24.39511 | 35547 ft | 315 kts | 255° |
| 2026-05-07 22:03 | 16.62001 | -24.41733 | 35780 ft | 317 kts | 256° |
| 2026-05-07 22:03 | 16.61425 | -24.43955 | 35950 ft | 319 kts | 255° |
| 2026-05-07 22:03 | 16.60846 | -24.46190 | 36161 ft | 320 kts | 256° |
| 2026-05-07 22:03 | 16.60264 | -24.48437 | 36391 ft | 321 kts | 255° |
| 2026-05-07 22:04 | 16.59687 | -24.50662 | 36614 ft | 321 kts | 255° |
| 2026-05-07 22:04 | 16.59101 | -24.52921 | 36841 ft | 322 kts | 255° |
| 2026-05-07 22:04 | 16.58522 | -24.55153 | 37023 ft | 323 kts | 256° |
| 2026-05-07 22:04 | 16.57929 | -24.57436 | 37170 ft | 325 kts | 255° |
| 2026-05-07 22:05 | 16.57340 | -24.59699 | 37374 ft | 326 kts | 255° |
| 2026-05-07 22:05 | 16.56746 | -24.61986 | 37624 ft | 325 kts | 255° |
| 2026-05-07 22:05 | 16.56152 | -24.64272 | 37847 ft | 325 kts | 255° |
| 2026-05-07 22:05 | 16.55554 | -24.66568 | 37967 ft | 328 kts | 255° |
| 2026-05-07 22:06 | 16.54383 | -24.71065 | 38008 ft | 321 kts | 255° |
| 2026-05-07 22:06 | 16.53198 | -24.75611 | 38010 ft | 328 kts | 255° |
| 2026-05-07 22:07 | 16.52000 | -24.80206 | 38002 ft | 329 kts | 255° |
| 2026-05-07 22:07 | 16.50799 | -24.84803 | 37999 ft | 329 kts | 256° |
| 2026-05-07 22:08 | 16.49597 | -24.89403 | 37998 ft | 331 kts | 255° |
| 2026-05-07 22:08 | 16.48394 | -24.94001 | 37999 ft | 329 kts | 255° |
| 2026-05-07 22:09 | 16.47184 | -24.98620 | 38002 ft | 330 kts | 256° |
| 2026-05-07 22:09 | 16.45980 | -25.03213 | 37995 ft | 330 kts | 255° |
| 2026-05-07 22:10 | 16.44776 | -25.07803 | 37995 ft | 330 kts | 255° |
| 2026-05-07 22:10 | 16.43560 | -25.12433 | 37995 ft | 331 kts | 256° |
| 2026-05-07 22:11 | 16.42342 | -25.17067 | 37998 ft | 332 kts | 256° |
| 2026-05-07 22:11 | 16.41125 | -25.21693 | 37994 ft | 332 kts | 256° |
| 2026-05-07 22:12 | 16.39909 | -25.26308 | 37998 ft | 332 kts | 256° |
| 2026-05-07 22:12 | 16.38692 | -25.30924 | 37997 ft | 333 kts | 256° |
| 2026-05-07 22:13 | 16.37475 | -25.35537 | 37991 ft | 330 kts | 256° |
| 2026-05-07 22:13 | 16.36251 | -25.40170 | 37994 ft | 333 kts | 256° |
| 2026-05-07 22:14 | 16.35028 | -25.44797 | 37999 ft | 336 kts | 256° |
| 2026-05-07 22:14 | 16.33762 | -25.49580 | 38005 ft | 347 kts | 256° |
| 2026-05-07 22:15 | 16.32456 | -25.54511 | 38006 ft | 359 kts | 256° |
| 2026-05-07 22:15 | 16.31108 | -25.59594 | 38005 ft | 371 kts | 256° |
| 2026-05-07 22:16 | 16.29717 | -25.64833 | 38000 ft | 382 kts | 256° |
| 2026-05-07 22:16 | 16.28283 | -25.70227 | 38011 ft | 395 kts | 256° |
| 2026-05-07 22:17 | 16.26803 | -25.75791 | 38007 ft | 406 kts | 255° |
| 2026-05-07 22:17 | 16.25275 | -25.81528 | 38006 ft | 416 kts | 255° |
| 2026-05-07 22:18 | 16.22959 | -25.90209 | 38008 ft | 414 kts | 255° |
| 2026-05-07 22:19 | 16.21418 | -25.95978 | 38010 ft | 414 kts | 256° |
| 2026-05-07 22:19 | 16.19889 | -26.01699 | 38008 ft | 415 kts | 255° |
| 2026-05-07 22:20 | 16.18333 | -26.07509 | 38008 ft | 417 kts | 255° |
| 2026-05-07 22:20 | 16.16781 | -26.13297 | 38010 ft | 416 kts | 255° |
| 2026-05-07 22:21 | 16.15229 | -26.19079 | 38008 ft | 416 kts | 255° |
| 2026-05-07 22:21 | 16.13657 | -26.24894 | 38002 ft | 418 kts | 253° |
| 2026-05-07 22:22 | 16.11056 | -26.30267 | 38014 ft | 422 kts | 241° |
| 2026-05-07 22:22 | 16.07996 | -26.35446 | 38003 ft | 421 kts | 241° |
| 2026-05-07 22:23 | 16.04936 | -26.40618 | 38001 ft | 421 kts | 240° |
| 2026-05-07 22:23 | 16.01870 | -26.45797 | 38004 ft | 420 kts | 240° |
| 2026-05-07 22:24 | 15.98807 | -26.50967 | 38001 ft | 421 kts | 241° |
| 2026-05-07 22:24 | 15.95734 | -26.56149 | 38002 ft | 421 kts | 241° |
| 2026-05-07 22:25 | 15.92666 | -26.61321 | 38002 ft | 421 kts | 240° |
| 2026-05-07 22:25 | 15.89598 | -26.66486 | 38010 ft | 421 kts | 240° |
| 2026-05-07 22:26 | 15.86508 | -26.71687 | 38004 ft | 422 kts | 240° |
| 2026-05-07 22:26 | 15.83431 | -26.76862 | 38004 ft | 422 kts | 240° |
| 2026-05-07 22:27 | 15.80343 | -26.82052 | 38003 ft | 423 kts | 240° |
| 2026-05-07 22:27 | 15.77225 | -26.87289 | 38008 ft | 432 kts | 240° |
| 2026-05-07 22:28 | 15.74052 | -26.92612 | 38006 ft | 439 kts | 240° |
| 2026-05-07 22:28 | 15.70832 | -26.98014 | 38004 ft | 440 kts | 240° |
| 2026-05-07 22:29 | 15.67648 | -27.03348 | 38000 ft | 433 kts | 240° |
| 2026-05-07 22:29 | 15.64478 | -27.08656 | 37999 ft | 431 kts | 240° |
| 2026-05-07 22:30 | 15.61318 | -27.13945 | 37997 ft | 432 kts | 240° |
| 2026-05-07 22:30 | 15.58163 | -27.19221 | 37997 ft | 434 kts | 240° |
| 2026-05-07 22:31 | 15.54973 | -27.24551 | 37991 ft | 433 kts | 240° |
| 2026-05-07 22:31 | 15.51805 | -27.29842 | 37988 ft | 434 kts | 240° |
| 2026-05-07 22:32 | 15.48612 | -27.35169 | 37987 ft | 432 kts | 240° |
| 2026-05-07 22:32 | 15.45441 | -27.40456 | 37988 ft | 432 kts | 240° |
| 2026-05-07 22:33 | 15.42284 | -27.45717 | 37989 ft | 434 kts | 240° |
| 2026-05-07 22:33 | 15.39099 | -27.51021 | 37987 ft | 432 kts | 240° |
| 2026-05-07 22:34 | 15.35927 | -27.56298 | 37986 ft | 432 kts | 240° |
| 2026-05-07 22:34 | 15.32754 | -27.61574 | 37985 ft | 432 kts | 240° |
| 2026-05-07 22:35 | 15.29580 | -27.66848 | 37993 ft | 433 kts | 240° |
| 2026-05-07 22:35 | 15.26392 | -27.72143 | 37990 ft | 431 kts | 240° |
| 2026-05-07 22:36 | 15.23235 | -27.77381 | 37990 ft | 431 kts | 240° |
| 2026-05-07 22:36 | 15.20055 | -27.82654 | 37990 ft | 431 kts | 240° |
| 2026-05-07 22:37 | 15.16895 | -27.87891 | 37988 ft | 430 kts | 240° |
| 2026-05-07 22:37 | 15.13707 | -27.93170 | 37988 ft | 430 kts | 240° |
| 2026-05-07 22:38 | 15.10569 | -27.98363 | 37987 ft | 428 kts | 240° |
| 2026-05-07 22:38 | 15.07404 | -28.03596 | 37985 ft | 428 kts | 240° |
| 2026-05-07 22:39 | 15.04243 | -28.08820 | 37986 ft | 427 kts | 240° |
| 2026-05-07 22:39 | 15.01102 | -28.14008 | 37984 ft | 429 kts | 240° |
| 2026-05-07 22:40 | 14.97947 | -28.19215 | 37984 ft | 427 kts | 240° |
| 2026-05-07 22:40 | 14.94788 | -28.24424 | 37984 ft | 429 kts | 240° |
| 2026-05-07 22:41 | 14.91620 | -28.29646 | 37981 ft | 428 kts | 240° |
| 2026-05-07 22:41 | 14.88449 | -28.34869 | 37983 ft | 429 kts | 240° |
| 2026-05-07 22:42 | 14.85278 | -28.40088 | 37984 ft | 430 kts | 240° |
| 2026-05-07 22:42 | 14.82093 | -28.45328 | 37983 ft | 429 kts | 240° |
| 2026-05-07 22:43 | 14.78212 | -28.50033 | 37993 ft | 436 kts | 225° |
| 2026-05-07 22:43 | 14.73718 | -28.54196 | 37982 ft | 436 kts | 225° |
| 2026-05-07 22:44 | 14.69199 | -28.58405 | 37980 ft | 436 kts | 226° |
| 2026-05-07 22:44 | 14.64685 | -28.62608 | 37980 ft | 437 kts | 226° |
| 2026-05-07 22:45 | 14.60174 | -28.66808 | 37994 ft | 436 kts | 225° |
| 2026-05-07 22:45 | 14.55684 | -28.70984 | 37991 ft | 436 kts | 225° |
| 2026-05-07 22:46 | 14.51169 | -28.75182 | 37991 ft | 436 kts | 225° |
| 2026-05-07 22:46 | 14.46660 | -28.79371 | 37990 ft | 437 kts | 225° |
| 2026-05-07 22:47 | 14.42154 | -28.83555 | 37991 ft | 436 kts | 225° |
| 2026-05-07 22:47 | 14.37619 | -28.87764 | 37996 ft | 437 kts | 225° |
| 2026-05-07 22:48 | 14.33130 | -28.91928 | 37993 ft | 436 kts | 225° |
| 2026-05-07 22:48 | 14.28608 | -28.96120 | 37994 ft | 437 kts | 225° |
| 2026-05-07 22:49 | 14.24081 | -29.00314 | 37992 ft | 436 kts | 225° |
| 2026-05-07 22:49 | 14.19579 | -29.04483 | 37992 ft | 437 kts | 225° |
| 2026-05-07 22:50 | 14.15068 | -29.08657 | 37990 ft | 437 kts | 225° |
| 2026-05-07 22:50 | 14.10532 | -29.12853 | 37988 ft | 436 kts | 225° |
| 2026-05-07 22:51 | 14.06005 | -29.17038 | 37988 ft | 438 kts | 226° |
| 2026-05-07 22:51 | 14.01485 | -29.21214 | 37987 ft | 438 kts | 226° |
| 2026-05-07 22:52 | 13.96939 | -29.25411 | 37996 ft | 437 kts | 225° |
| 2026-05-07 22:52 | 13.92412 | -29.29590 | 38005 ft | 437 kts | 225° |
| 2026-05-07 22:53 | 13.87895 | -29.33756 | 38000 ft | 437 kts | 225° |
| 2026-05-07 22:53 | 13.83386 | -29.37913 | 37996 ft | 436 kts | 226° |
| 2026-05-07 22:54 | 13.78857 | -29.42086 | 37997 ft | 435 kts | 226° |
| 2026-05-07 22:54 | 13.74344 | -29.46242 | 37997 ft | 436 kts | 226° |
| 2026-05-07 22:55 | 13.69842 | -29.50385 | 37988 ft | 435 kts | 226° |
| 2026-05-07 22:55 | 13.65341 | -29.54526 | 37988 ft | 435 kts | 226° |
| 2026-05-07 22:56 | 13.60807 | -29.58694 | 37985 ft | 435 kts | 226° |
| 2026-05-07 22:56 | 13.56317 | -29.62820 | 37982 ft | 433 kts | 226° |
| 2026-05-07 22:57 | 13.51808 | -29.66962 | 37998 ft | 434 kts | 225° |
| 2026-05-07 22:57 | 13.47288 | -29.71111 | 37998 ft | 434 kts | 225° |
| 2026-05-07 22:58 | 13.42810 | -29.75219 | 37997 ft | 434 kts | 226° |
| 2026-05-07 22:58 | 13.38296 | -29.79359 | 37997 ft | 434 kts | 226° |
| 2026-05-07 22:59 | 13.33787 | -29.83491 | 37996 ft | 434 kts | 226° |
| 2026-05-07 22:59 | 13.29306 | -29.87596 | 37995 ft | 432 kts | 226° |
| 2026-05-07 23:00 | 13.24810 | -29.91712 | 37994 ft | 433 kts | 226° |
| 2026-05-07 23:00 | 13.20326 | -29.95815 | 37994 ft | 434 kts | 226° |
| 2026-05-07 23:01 | 13.15823 | -29.99933 | 37991 ft | 433 kts | 226° |
| 2026-05-07 23:01 | 13.11329 | -30.04042 | 37991 ft | 433 kts | 226° |
| 2026-05-07 23:02 | 13.06827 | -30.08154 | 37985 ft | 430 kts | 226° |
| 2026-05-07 23:02 | 13.02347 | -30.12246 | 37985 ft | 430 kts | 226° |
| 2026-05-07 23:03 | 12.97910 | -30.16295 | 37984 ft | 430 kts | 226° |
| 2026-05-07 23:03 | 12.93423 | -30.20389 | 37984 ft | 430 kts | 226° |
| 2026-05-07 23:04 | 12.88955 | -30.24463 | 37985 ft | 431 kts | 226° |
| 2026-05-07 23:04 | 12.84444 | -30.28575 | 37985 ft | 432 kts | 226° |
| 2026-05-07 23:05 | 12.79963 | -30.32657 | 37983 ft | 431 kts | 226° |
| 2026-05-07 23:05 | 12.75488 | -30.36731 | 37983 ft | 431 kts | 226° |
| 2026-05-07 23:06 | 12.71014 | -30.40802 | 37984 ft | 431 kts | 226° |
| 2026-05-07 23:06 | 12.66510 | -30.44899 | 37982 ft | 430 kts | 226° |
| 2026-05-07 23:07 | 12.62029 | -30.48973 | 37982 ft | 431 kts | 226° |
| 2026-05-07 23:07 | 12.57557 | -30.53036 | 37983 ft | 432 kts | 226° |
| 2026-05-07 23:08 | 12.53042 | -30.57137 | 37980 ft | 432 kts | 226° |
| 2026-05-07 23:08 | 12.48559 | -30.61207 | 37980 ft | 431 kts | 226° |
| 2026-05-07 23:09 | 12.44045 | -30.65303 | 37981 ft | 433 kts | 226° |
| 2026-05-07 23:09 | 12.39565 | -30.69366 | 37992 ft | 432 kts | 226° |
| 2026-05-07 23:10 | 12.35055 | -30.73454 | 37991 ft | 431 kts | 226° |
| 2026-05-07 23:10 | 12.30576 | -30.77512 | 37991 ft | 433 kts | 226° |
| 2026-05-07 23:11 | 12.26058 | -30.81604 | 37989 ft | 433 kts | 226° |
| 2026-05-07 23:11 | 12.21544 | -30.85690 | 37995 ft | 432 kts | 226° |
| 2026-05-07 23:12 | 12.17057 | -30.89749 | 37989 ft | 433 kts | 226° |
| 2026-05-07 23:12 | 12.12544 | -30.93831 | 37989 ft | 433 kts | 226° |
| 2026-05-07 23:13 | 12.08005 | -30.97934 | 37990 ft | 435 kts | 226° |
| 2026-05-07 23:13 | 12.03497 | -31.02006 | 37986 ft | 431 kts | 226° |
| 2026-05-07 23:14 | 11.98966 | -31.06099 | 37987 ft | 434 kts | 226° |
| 2026-05-07 23:14 | 11.94464 | -31.10162 | 37986 ft | 433 kts | 226° |
| 2026-05-07 23:15 | 11.89929 | -31.14254 | 37985 ft | 433 kts | 226° |
| 2026-05-07 23:15 | 11.85424 | -31.18316 | 37985 ft | 434 kts | 226° |
| 2026-05-07 23:16 | 11.80910 | -31.22385 | 37984 ft | 433 kts | 226° |
| 2026-05-07 23:16 | 11.76400 | -31.26448 | 37983 ft | 432 kts | 226° |
| 2026-05-07 23:17 | 11.71853 | -31.30543 | 37979 ft | 434 kts | 225° |
| 2026-05-07 23:17 | 11.67334 | -31.34611 | 37977 ft | 434 kts | 225° |
| 2026-05-07 23:18 | 11.62816 | -31.38676 | 37975 ft | 435 kts | 225° |
| 2026-05-07 23:18 | 11.58274 | -31.42761 | 37976 ft | 436 kts | 225° |
| 2026-05-07 23:19 | 11.53728 | -31.46848 | 37975 ft | 436 kts | 225° |
| 2026-05-07 23:19 | 11.49186 | -31.50930 | 37974 ft | 436 kts | 225° |
| 2026-05-07 23:20 | 11.44615 | -31.55035 | 37972 ft | 436 kts | 225° |
| 2026-05-07 23:20 | 11.40066 | -31.59118 | 37971 ft | 436 kts | 225° |
| 2026-05-07 23:21 | 11.35521 | -31.63196 | 37970 ft | 436 kts | 225° |
| 2026-05-07 23:21 | 11.30969 | -31.67279 | 37977 ft | 437 kts | 225° |
| 2026-05-07 23:22 | 11.26406 | -31.71371 | 37977 ft | 436 kts | 225° |
| 2026-05-07 23:22 | 11.21856 | -31.75447 | 37973 ft | 436 kts | 225° |
| 2026-05-07 23:23 | 11.17305 | -31.79524 | 37976 ft | 437 kts | 225° |
| 2026-05-07 23:23 | 11.12722 | -31.83628 | 37971 ft | 437 kts | 225° |
| 2026-05-07 23:24 | 11.08172 | -31.87701 | 37971 ft | 438 kts | 225° |
| 2026-05-07 23:24 | 11.03592 | -31.91797 | 37967 ft | 438 kts | 225° |
| 2026-05-07 23:25 | 10.99006 | -31.95898 | 37969 ft | 437 kts | 225° |
| 2026-05-07 23:25 | 10.94447 | -31.99973 | 37966 ft | 437 kts | 225° |
| 2026-05-07 23:26 | 10.89857 | -32.04074 | 37966 ft | 437 kts | 225° |
| 2026-05-07 23:26 | 10.85290 | -32.08152 | 37966 ft | 439 kts | 225° |
| 2026-05-07 23:27 | 10.78379 | -32.14321 | 37966 ft | 439 kts | 225° |
| 2026-05-07 23:27 | 10.73795 | -32.18410 | 37965 ft | 440 kts | 224° |
| 2026-05-07 23:28 | 10.69198 | -32.22510 | 37965 ft | 439 kts | 224° |
| 2026-05-07 23:28 | 10.64585 | -32.26622 | 37968 ft | 440 kts | 224° |
| 2026-05-07 23:29 | 10.60007 | -32.30701 | 37971 ft | 441 kts | 224° |
| 2026-05-07 23:29 | 10.55379 | -32.34822 | 37972 ft | 441 kts | 224° |
| 2026-05-07 23:30 | 10.50753 | -32.38941 | 37974 ft | 441 kts | 224° |
| 2026-05-07 23:30 | 10.46125 | -32.43059 | 37976 ft | 442 kts | 224° |
| 2026-05-07 23:31 | 10.41526 | -32.47150 | 37981 ft | 441 kts | 224° |
| 2026-05-07 23:31 | 10.36891 | -32.51271 | 37982 ft | 442 kts | 224° |
| 2026-05-07 23:32 | 10.32265 | -32.55383 | 37982 ft | 440 kts | 224° |
| 2026-05-07 23:32 | 10.27634 | -32.59497 | 37982 ft | 443 kts | 224° |
| 2026-05-07 23:33 | 10.22994 | -32.63618 | 37982 ft | 444 kts | 224° |
| 2026-05-07 23:33 | 10.18341 | -32.67748 | 37989 ft | 443 kts | 224° |
| 2026-05-07 23:34 | 10.13717 | -32.71851 | 37989 ft | 443 kts | 224° |
| 2026-05-07 23:34 | 10.09050 | -32.75991 | 37983 ft | 444 kts | 224° |
| 2026-05-07 23:35 | 10.04423 | -32.80093 | 37973 ft | 444 kts | 224° |
| 2026-05-07 23:35 | 9.99778 | -32.84210 | 37969 ft | 444 kts | 224° |
| 2026-05-07 23:36 | 9.95121 | -32.88337 | 37968 ft | 445 kts | 224° |
| 2026-05-07 23:36 | 9.90445 | -32.92477 | 37967 ft | 444 kts | 224° |
| 2026-05-07 23:37 | 9.85805 | -32.96584 | 37967 ft | 445 kts | 224° |
| 2026-05-07 23:37 | 9.81142 | -33.00711 | 37967 ft | 445 kts | 224° |
| 2026-05-07 23:38 | 9.76442 | -33.04869 | 37967 ft | 446 kts | 224° |
| 2026-05-07 23:38 | 9.71777 | -33.08993 | 37966 ft | 446 kts | 224° |
| 2026-05-07 23:39 | 9.67100 | -33.13127 | 37966 ft | 447 kts | 224° |
| 2026-05-07 23:39 | 9.62389 | -33.17289 | 37966 ft | 447 kts | 224° |
| 2026-05-07 23:40 | 9.57703 | -33.21428 | 37964 ft | 447 kts | 224° |
| 2026-05-07 23:40 | 9.53022 | -33.25561 | 37964 ft | 448 kts | 224° |
| 2026-05-07 23:41 | 9.48294 | -33.29734 | 37965 ft | 449 kts | 224° |
| 2026-05-07 23:41 | 9.43613 | -33.33862 | 37963 ft | 448 kts | 224° |
| 2026-05-07 23:42 | 9.38907 | -33.38012 | 37964 ft | 449 kts | 224° |
| 2026-05-07 23:42 | 9.34197 | -33.42165 | 37964 ft | 448 kts | 224° |
| 2026-05-07 23:43 | 9.29489 | -33.46313 | 37966 ft | 450 kts | 224° |
| 2026-05-07 23:43 | 9.24775 | -33.50466 | 37963 ft | 449 kts | 224° |
| 2026-05-07 23:44 | 9.20051 | -33.54625 | 37963 ft | 449 kts | 224° |
| 2026-05-07 23:44 | 9.15307 | -33.58802 | 37962 ft | 449 kts | 224° |
| 2026-05-07 23:45 | 9.10599 | -33.62944 | 37963 ft | 450 kts | 224° |
| 2026-05-07 23:45 | 9.05871 | -33.67102 | 37970 ft | 449 kts | 224° |
| 2026-05-07 23:46 | 9.01140 | -33.71263 | 37968 ft | 450 kts | 224° |
| 2026-05-07 23:46 | 8.96425 | -33.75406 | 37966 ft | 451 kts | 224° |
| 2026-05-07 23:47 | 8.91691 | -33.79565 | 37967 ft | 450 kts | 224° |
| 2026-05-07 23:47 | 8.86994 | -33.83691 | 37968 ft | 449 kts | 224° |
| 2026-05-07 23:48 | 8.82269 | -33.87839 | 37964 ft | 448 kts | 224° |
| 2026-05-07 23:48 | 8.77536 | -33.91993 | 37970 ft | 448 kts | 224° |
| 2026-05-07 23:49 | 8.72833 | -33.96120 | 37966 ft | 449 kts | 224° |
| 2026-05-07 23:49 | 8.68092 | -34.00279 | 37965 ft | 450 kts | 224° |
| 2026-05-07 23:50 | 8.63364 | -34.04424 | 37967 ft | 452 kts | 224° |
| 2026-05-07 23:50 | 8.58632 | -34.08572 | 37965 ft | 451 kts | 224° |
| 2026-05-07 23:51 | 8.53885 | -34.12730 | 37963 ft | 452 kts | 224° |
| 2026-05-07 23:51 | 8.49142 | -34.16884 | 37962 ft | 452 kts | 224° |
| 2026-05-07 23:52 | 8.44396 | -34.21040 | 37963 ft | 450 kts | 224° |
| 2026-05-07 23:52 | 8.39670 | -34.25177 | 37959 ft | 450 kts | 224° |
| 2026-05-07 23:53 | 8.34947 | -34.29310 | 37955 ft | 451 kts | 224° |
| 2026-05-07 23:53 | 8.30192 | -34.33469 | 37948 ft | 450 kts | 224° |
| 2026-05-07 23:54 | 8.25439 | -34.37625 | 37947 ft | 452 kts | 224° |
| 2026-05-07 23:54 | 8.20691 | -34.41775 | 37952 ft | 452 kts | 224° |
| 2026-05-07 23:55 | 8.15935 | -34.45931 | 37961 ft | 451 kts | 224° |
| 2026-05-07 23:55 | 8.11179 | -34.50086 | 37966 ft | 451 kts | 224° |
| 2026-05-07 23:56 | 8.06443 | -34.54221 | 37964 ft | 451 kts | 223° |
| 2026-05-07 23:56 | 8.01683 | -34.58377 | 37965 ft | 451 kts | 224° |
| 2026-05-07 23:57 | 7.96914 | -34.62539 | 37963 ft | 452 kts | 223° |
| 2026-05-07 23:57 | 7.92154 | -34.66690 | 37972 ft | 452 kts | 223° |
| 2026-05-07 23:58 | 7.87409 | -34.70830 | 37971 ft | 452 kts | 223° |
| 2026-05-07 23:58 | 7.82687 | -34.74947 | 37972 ft | 449 kts | 223° |
| 2026-05-07 23:59 | 7.77944 | -34.79080 | 37968 ft | 450 kts | 223° |
| 2026-05-07 23:59 | 7.73189 | -34.83224 | 37967 ft | 452 kts | 223° |
| 2026-05-08 00:00 | 7.68458 | -34.87345 | 37966 ft | 451 kts | 223° |
| 2026-05-08 00:00 | 7.63686 | -34.91500 | 37966 ft | 452 kts | 223° |
| 2026-05-08 00:01 | 7.58908 | -34.95659 | 37968 ft | 453 kts | 223° |
| 2026-05-08 00:01 | 7.54176 | -34.99777 | 37966 ft | 451 kts | 223° |
| 2026-05-08 00:02 | 7.49417 | -35.03918 | 37967 ft | 451 kts | 223° |
| 2026-05-08 00:02 | 7.44667 | -35.08049 | 37965 ft | 450 kts | 223° |
| 2026-05-08 00:03 | 7.39908 | -35.12187 | 37963 ft | 449 kts | 223° |
| 2026-05-08 00:03 | 7.35178 | -35.16299 | 37967 ft | 451 kts | 223° |
| 2026-05-08 00:04 | 7.30436 | -35.20419 | 37963 ft | 450 kts | 223° |
| 2026-05-08 00:04 | 7.25687 | -35.24544 | 37962 ft | 450 kts | 223° |
| 2026-05-08 00:05 | 7.20921 | -35.28684 | 37965 ft | 452 kts | 223° |
| 2026-05-08 00:05 | 7.16172 | -35.32806 | 37963 ft | 451 kts | 223° |
| 2026-05-08 00:06 | 7.11408 | -35.36942 | 37963 ft | 451 kts | 223° |
| 2026-05-08 00:06 | 7.06665 | -35.41057 | 37963 ft | 452 kts | 223° |
| 2026-05-08 00:07 | 7.01881 | -35.45207 | 37963 ft | 453 kts | 222° |
| 2026-05-08 00:07 | 6.97112 | -35.49343 | 37961 ft | 452 kts | 222° |
| 2026-05-08 00:08 | 6.92352 | -35.53470 | 37963 ft | 452 kts | 223° |
| 2026-05-08 00:08 | 6.87591 | -35.57596 | 37960 ft | 453 kts | 223° |
| 2026-05-08 00:09 | 6.82801 | -35.61747 | 37961 ft | 454 kts | 223° |
| 2026-05-08 00:09 | 6.77994 | -35.65911 | 37960 ft | 454 kts | 222° |
| 2026-05-08 00:10 | 6.73214 | -35.70051 | 37963 ft | 455 kts | 222° |
| 2026-05-08 00:10 | 6.68415 | -35.74206 | 37960 ft | 455 kts | 222° |
| 2026-05-08 00:11 | 6.63601 | -35.78373 | 37962 ft | 454 kts | 222° |
| 2026-05-08 00:11 | 6.58791 | -35.82535 | 37958 ft | 455 kts | 222° |
| 2026-05-08 00:12 | 6.54023 | -35.86660 | 37965 ft | 454 kts | 222° |
| 2026-05-08 00:12 | 6.49214 | -35.90819 | 37967 ft | 455 kts | 222° |
| 2026-05-08 00:13 | 6.44405 | -35.94977 | 37968 ft | 456 kts | 222° |
| 2026-05-08 00:13 | 6.39590 | -35.99139 | 37966 ft | 457 kts | 222° |
| 2026-05-08 00:14 | 6.34757 | -36.03316 | 37966 ft | 456 kts | 222° |
| 2026-05-08 00:14 | 6.29953 | -36.07467 | 37965 ft | 457 kts | 222° |
| 2026-05-08 00:15 | 6.25137 | -36.11626 | 37965 ft | 456 kts | 222° |
| 2026-05-08 00:15 | 6.20329 | -36.15778 | 37965 ft | 456 kts | 222° |
| 2026-05-08 00:16 | 6.15505 | -36.19943 | 37965 ft | 457 kts | 222° |
| 2026-05-08 00:16 | 6.10687 | -36.24102 | 37959 ft | 457 kts | 222° |
| 2026-05-08 00:17 | 6.05858 | -36.28268 | 37950 ft | 457 kts | 222° |
| 2026-05-08 00:17 | 6.01041 | -36.32424 | 37944 ft | 459 kts | 222° |
| 2026-05-08 00:18 | 5.96627 | -36.37038 | 37947 ft | 458 kts | 229° |
| 2026-05-08 00:18 | 5.92374 | -36.41754 | 37942 ft | 457 kts | 229° |
| 2026-05-08 00:19 | 5.88092 | -36.46489 | 37943 ft | 456 kts | 229° |
| 2026-05-08 00:19 | 5.83803 | -36.51231 | 37943 ft | 457 kts | 229° |
| 2026-05-08 00:20 | 5.79546 | -36.55936 | 37936 ft | 458 kts | 229° |
| 2026-05-08 00:20 | 5.75254 | -36.60677 | 37941 ft | 457 kts | 229° |
| 2026-05-08 00:21 | 5.70985 | -36.65393 | 37940 ft | 457 kts | 229° |
| 2026-05-08 00:21 | 5.66705 | -36.70119 | 37942 ft | 458 kts | 229° |
| 2026-05-08 00:22 | 5.62392 | -36.74881 | 37946 ft | 459 kts | 229° |
| 2026-05-08 00:22 | 5.58105 | -36.79613 | 37946 ft | 458 kts | 229° |
| 2026-05-08 00:23 | 5.53821 | -36.84341 | 37942 ft | 459 kts | 229° |
| 2026-05-08 00:23 | 5.49530 | -36.89075 | 37947 ft | 460 kts | 229° |
| 2026-05-08 00:24 | 5.45246 | -36.93800 | 37942 ft | 458 kts | 229° |
| 2026-05-08 00:24 | 5.40956 | -36.98531 | 37945 ft | 458 kts | 229° |
| 2026-05-08 00:25 | 5.36643 | -37.03286 | 37944 ft | 460 kts | 229° |
| 2026-05-08 00:25 | 5.32323 | -37.08047 | 37948 ft | 460 kts | 229° |
| 2026-05-08 00:26 | 5.28014 | -37.12796 | 37946 ft | 459 kts | 229° |
| 2026-05-08 00:26 | 5.23729 | -37.17517 | 37946 ft | 459 kts | 229° |
| 2026-05-08 00:27 | 5.19411 | -37.22273 | 37947 ft | 459 kts | 229° |
| 2026-05-08 00:27 | 5.15119 | -37.27001 | 37946 ft | 459 kts | 229° |
| 2026-05-08 00:28 | 5.10805 | -37.31751 | 37947 ft | 461 kts | 229° |
| 2026-05-08 00:28 | 5.06483 | -37.36509 | 37944 ft | 460 kts | 229° |
| 2026-05-08 00:29 | 5.02186 | -37.41238 | 37947 ft | 460 kts | 229° |
| 2026-05-08 00:29 | 4.97874 | -37.45983 | 37948 ft | 461 kts | 229° |
| 2026-05-08 00:30 | 4.93573 | -37.50713 | 37943 ft | 460 kts | 229° |
| 2026-05-08 00:30 | 4.89248 | -37.55471 | 37947 ft | 461 kts | 229° |
| 2026-05-08 00:31 | 4.84940 | -37.60209 | 37939 ft | 460 kts | 229° |
| 2026-05-08 00:31 | 4.80625 | -37.64953 | 37939 ft | 462 kts | 229° |
| 2026-05-08 00:32 | 4.76293 | -37.69714 | 37944 ft | 460 kts | 229° |
| 2026-05-08 00:32 | 4.71979 | -37.74456 | 37943 ft | 461 kts | 229° |
| 2026-05-08 00:33 | 4.67655 | -37.79206 | 37945 ft | 462 kts | 228° |
| 2026-05-08 00:33 | 4.63321 | -37.83968 | 37945 ft | 462 kts | 228° |
| 2026-05-08 00:34 | 4.58998 | -37.88716 | 37944 ft | 461 kts | 228° |
| 2026-05-08 00:34 | 4.54667 | -37.93471 | 37944 ft | 461 kts | 229° |
| 2026-05-08 00:35 | 4.50335 | -37.98228 | 37939 ft | 461 kts | 228° |
| 2026-05-08 00:35 | 4.46027 | -38.02957 | 37931 ft | 463 kts | 228° |
| 2026-05-08 00:36 | 4.41684 | -38.07724 | 37931 ft | 462 kts | 228° |
| 2026-05-08 00:36 | 4.37367 | -38.12461 | 37929 ft | 463 kts | 228° |
| 2026-05-08 00:37 | 4.32993 | -38.17260 | 37928 ft | 463 kts | 229° |
| 2026-05-08 00:38 | 4.26493 | -38.24388 | 37921 ft | 463 kts | 229° |
| 2026-05-08 00:38 | 4.22145 | -38.29158 | 37920 ft | 463 kts | 229° |
| 2026-05-08 00:39 | 4.17812 | -38.33907 | 37920 ft | 465 kts | 229° |
| 2026-05-08 00:39 | 4.13446 | -38.38694 | 37918 ft | 464 kts | 229° |
| 2026-05-08 00:40 | 4.09075 | -38.43484 | 37918 ft | 465 kts | 229° |
| 2026-05-08 00:40 | 4.04723 | -38.48253 | 37917 ft | 466 kts | 229° |
| 2026-05-08 00:41 | 4.00360 | -38.53033 | 37921 ft | 466 kts | 229° |
| 2026-05-08 00:41 | 3.95985 | -38.57826 | 37925 ft | 466 kts | 229° |
| 2026-05-08 00:42 | 3.91592 | -38.62637 | 37925 ft | 466 kts | 229° |
| 2026-05-08 00:42 | 3.87222 | -38.67423 | 37926 ft | 466 kts | 228° |
| 2026-05-08 00:43 | 3.82861 | -38.72198 | 37926 ft | 466 kts | 229° |
| 2026-05-08 00:43 | 3.78503 | -38.76969 | 37925 ft | 466 kts | 229° |
| 2026-05-08 00:44 | 3.74103 | -38.81785 | 37926 ft | 466 kts | 228° |
| 2026-05-08 00:44 | 3.69733 | -38.86568 | 37926 ft | 465 kts | 228° |
| 2026-05-08 00:45 | 3.65362 | -38.91350 | 37925 ft | 466 kts | 228° |
| 2026-05-08 00:45 | 3.60996 | -38.96127 | 37925 ft | 466 kts | 228° |
| 2026-05-08 00:46 | 3.56628 | -39.00905 | 37925 ft | 467 kts | 228° |
| 2026-05-08 00:46 | 3.52227 | -39.05718 | 37925 ft | 467 kts | 228° |
| 2026-05-08 00:47 | 3.47873 | -39.10479 | 37925 ft | 466 kts | 229° |
| 2026-05-08 00:47 | 3.43477 | -39.15286 | 37925 ft | 465 kts | 228° |
| 2026-05-08 00:48 | 3.39135 | -39.20032 | 37925 ft | 464 kts | 228° |
| 2026-05-08 00:48 | 3.34768 | -39.24805 | 37925 ft | 464 kts | 229° |
| 2026-05-08 00:49 | 3.30394 | -39.29586 | 37926 ft | 465 kts | 228° |
| 2026-05-08 00:49 | 3.26026 | -39.34359 | 37925 ft | 465 kts | 229° |
| 2026-05-08 00:50 | 3.21656 | -39.39134 | 37925 ft | 466 kts | 229° |
| 2026-05-08 00:50 | 3.17283 | -39.43911 | 37925 ft | 465 kts | 229° |
| 2026-05-08 00:51 | 3.12920 | -39.48677 | 37925 ft | 466 kts | 228° |
| 2026-05-08 00:51 | 3.08522 | -39.53480 | 37924 ft | 465 kts | 229° |
| 2026-05-08 00:52 | 3.04160 | -39.58243 | 37925 ft | 465 kts | 229° |
| 2026-05-08 00:52 | 2.99801 | -39.63003 | 37926 ft | 467 kts | 229° |
| 2026-05-08 00:53 | 2.95399 | -39.67809 | 37927 ft | 467 kts | 229° |
| 2026-05-08 00:53 | 2.90999 | -39.72612 | 37926 ft | 467 kts | 229° |
| 2026-05-08 00:54 | 2.86631 | -39.77379 | 37923 ft | 468 kts | 229° |
| 2026-05-08 00:54 | 2.82244 | -39.82166 | 37921 ft | 467 kts | 229° |
| 2026-05-08 00:55 | 2.77826 | -39.86987 | 37914 ft | 468 kts | 228° |
| 2026-05-08 00:55 | 2.73442 | -39.91770 | 37909 ft | 469 kts | 228° |
| 2026-05-08 00:56 | 2.69020 | -39.96595 | 37906 ft | 470 kts | 229° |
| 2026-05-08 00:56 | 2.64583 | -40.01435 | 37905 ft | 471 kts | 229° |
| 2026-05-08 00:57 | 2.60167 | -40.06251 | 37907 ft | 471 kts | 229° |
| 2026-05-08 00:57 | 2.55720 | -40.11100 | 37907 ft | 472 kts | 228° |
| 2026-05-08 00:58 | 2.51310 | -40.15910 | 37908 ft | 470 kts | 228° |
| 2026-05-08 00:58 | 2.46898 | -40.20720 | 37909 ft | 470 kts | 228° |
| 2026-05-08 00:59 | 2.42454 | -40.25565 | 37910 ft | 471 kts | 228° |
| 2026-05-08 00:59 | 2.38046 | -40.30370 | 37909 ft | 472 kts | 228° |
| 2026-05-08 01:00 | 2.33587 | -40.35231 | 37912 ft | 471 kts | 228° |
| 2026-05-08 01:00 | 2.29178 | -40.40036 | 37914 ft | 471 kts | 228° |
| 2026-05-08 01:01 | 2.24755 | -40.44855 | 37915 ft | 471 kts | 228° |
| 2026-05-08 01:01 | 2.20317 | -40.49691 | 37916 ft | 471 kts | 228° |
| 2026-05-08 01:02 | 2.15867 | -40.54540 | 37917 ft | 471 kts | 228° |
| 2026-05-08 01:02 | 2.11453 | -40.59348 | 37919 ft | 472 kts | 228° |
| 2026-05-08 01:03 | 2.06997 | -40.64202 | 37923 ft | 472 kts | 228° |
| 2026-05-08 01:03 | 2.02576 | -40.69017 | 37929 ft | 472 kts | 228° |
| 2026-05-08 01:04 | 1.98156 | -40.73831 | 37928 ft | 471 kts | 228° |
| 2026-05-08 01:04 | 1.93719 | -40.78664 | 37927 ft | 470 kts | 228° |
| 2026-05-08 01:05 | 1.89304 | -40.83471 | 37926 ft | 470 kts | 228° |
| 2026-05-08 01:05 | 1.84876 | -40.88292 | 37928 ft | 470 kts | 228° |
| 2026-05-08 01:06 | 1.80445 | -40.93116 | 37925 ft | 470 kts | 228° |
| 2026-05-08 01:06 | 1.76028 | -40.97926 | 37924 ft | 469 kts | 228° |
| 2026-05-08 01:07 | 1.71629 | -41.02714 | 37926 ft | 469 kts | 228° |
| 2026-05-08 01:07 | 1.67204 | -41.07531 | 37924 ft | 468 kts | 228° |
| 2026-05-08 01:08 | 1.62819 | -41.12303 | 37926 ft | 468 kts | 228° |
| 2026-05-08 01:08 | 1.58418 | -41.17094 | 37924 ft | 468 kts | 228° |
| 2026-05-08 01:09 | 1.54017 | -41.21883 | 37925 ft | 468 kts | 228° |
| 2026-05-08 01:09 | 1.49606 | -41.26683 | 37926 ft | 468 kts | 228° |
| 2026-05-08 01:10 | 1.45220 | -41.31456 | 37926 ft | 466 kts | 228° |
| 2026-05-08 01:10 | 1.40835 | -41.36228 | 37923 ft | 466 kts | 228° |
| 2026-05-08 01:11 | 1.36454 | -41.40994 | 37926 ft | 467 kts | 228° |
| 2026-05-08 01:11 | 1.32059 | -41.45775 | 37924 ft | 467 kts | 228° |
| 2026-05-08 01:12 | 1.27655 | -41.50567 | 37923 ft | 467 kts | 228° |
| 2026-05-08 01:12 | 1.23236 | -41.55373 | 37923 ft | 467 kts | 228° |
| 2026-05-08 01:13 | 1.18858 | -41.60136 | 37926 ft | 466 kts | 228° |
| 2026-05-08 01:13 | 1.14479 | -41.64899 | 37928 ft | 466 kts | 228° |
| 2026-05-08 01:14 | 1.10092 | -41.69670 | 37927 ft | 468 kts | 228° |
| 2026-05-08 01:14 | 1.05681 | -41.74468 | 37926 ft | 469 kts | 228° |
| 2026-05-08 01:15 | 1.01275 | -41.79259 | 37925 ft | 468 kts | 228° |
| 2026-05-08 01:15 | 0.96868 | -41.84052 | 37929 ft | 467 kts | 228° |
| 2026-05-08 01:16 | 0.92478 | -41.88826 | 37939 ft | 467 kts | 228° |
| 2026-05-08 01:16 | 0.88094 | -41.93593 | 37947 ft | 467 kts | 228° |
| 2026-05-08 01:17 | 0.83686 | -41.98386 | 37946 ft | 466 kts | 227° |
| 2026-05-08 01:17 | 0.79320 | -42.03134 | 37945 ft | 467 kts | 227° |
| 2026-05-08 01:18 | 0.74908 | -42.07931 | 37942 ft | 466 kts | 227° |
| 2026-05-08 01:18 | 0.70546 | -42.12673 | 37939 ft | 465 kts | 228° |
| 2026-05-08 01:19 | 0.66152 | -42.17451 | 37940 ft | 466 kts | 228° |
| 2026-05-08 01:19 | 0.61784 | -42.22199 | 37938 ft | 466 kts | 228° |
| 2026-05-08 01:20 | 0.57408 | -42.26957 | 37932 ft | 464 kts | 228° |
| 2026-05-08 01:20 | 0.53045 | -42.31700 | 37927 ft | 464 kts | 228° |
| 2026-05-08 01:21 | 0.48645 | -42.36483 | 37926 ft | 464 kts | 228° |
| 2026-05-08 01:21 | 0.44294 | -42.41213 | 37925 ft | 464 kts | 228° |
| 2026-05-08 01:22 | 0.39939 | -42.45947 | 37925 ft | 463 kts | 228° |
| 2026-05-08 01:22 | 0.35556 | -42.50711 | 37924 ft | 463 kts | 228° |
| 2026-05-08 01:23 | 0.31197 | -42.55450 | 37924 ft | 463 kts | 228° |
| 2026-05-08 01:23 | 0.26861 | -42.60164 | 37924 ft | 462 kts | 228° |
| 2026-05-08 01:24 | 0.22510 | -42.64894 | 37924 ft | 462 kts | 228° |
| 2026-05-08 01:24 | 0.18163 | -42.69618 | 37926 ft | 461 kts | 228° |
| 2026-05-08 01:25 | 0.13812 | -42.74348 | 37925 ft | 460 kts | 228° |
| 2026-05-08 01:25 | 0.09509 | -42.79025 | 37925 ft | 459 kts | 228° |
| 2026-05-08 01:26 | 0.05186 | -42.83724 | 37925 ft | 459 kts | 228° |
| 2026-05-08 01:26 | 0.00836 | -42.88452 | 37926 ft | 461 kts | 228° |
| 2026-05-08 01:27 | -0.03493 | -42.93158 | 37926 ft | 460 kts | 228° |
| 2026-05-08 01:27 | -0.07826 | -42.97868 | 37925 ft | 460 kts | 228° |
| 2026-05-08 01:28 | -0.12132 | -43.02548 | 37926 ft | 459 kts | 228° |
| 2026-05-08 01:28 | -0.16473 | -43.07267 | 37925 ft | 459 kts | 228° |
| 2026-05-08 01:29 | -0.20795 | -43.11965 | 37926 ft | 460 kts | 228° |
| 2026-05-08 01:29 | -0.25112 | -43.16658 | 37925 ft | 460 kts | 228° |
| 2026-05-08 01:30 | -0.29449 | -43.21372 | 37924 ft | 460 kts | 228° |
| 2026-05-08 01:30 | -0.33792 | -43.26093 | 37924 ft | 461 kts | 228° |
| 2026-05-08 01:31 | -0.38116 | -43.30793 | 37924 ft | 460 kts | 228° |
| 2026-05-08 01:31 | -0.42434 | -43.35487 | 37923 ft | 459 kts | 228° |
| 2026-05-08 01:32 | -0.46775 | -43.40207 | 37924 ft | 460 kts | 228° |
| 2026-05-08 01:32 | -0.51108 | -43.44917 | 37923 ft | 460 kts | 228° |
| 2026-05-08 01:33 | -0.55428 | -43.49613 | 37923 ft | 461 kts | 228° |
| 2026-05-08 01:33 | -0.59790 | -43.54355 | 37923 ft | 461 kts | 228° |
| 2026-05-08 01:34 | -0.64126 | -43.59069 | 37924 ft | 461 kts | 228° |
| 2026-05-08 01:34 | -0.68464 | -43.63784 | 37922 ft | 461 kts | 228° |
| 2026-05-08 01:35 | -0.72781 | -43.68476 | 37926 ft | 460 kts | 228° |
| 2026-05-08 01:35 | -0.77128 | -43.73201 | 37926 ft | 460 kts | 228° |
| 2026-05-08 01:36 | -0.81449 | -43.77897 | 37923 ft | 460 kts | 228° |
| 2026-05-08 01:36 | -0.85781 | -43.82606 | 37925 ft | 461 kts | 228° |
| 2026-05-08 01:37 | -0.90122 | -43.87326 | 37925 ft | 462 kts | 228° |
| 2026-05-08 01:37 | -0.94485 | -43.92072 | 37925 ft | 461 kts | 228° |
| 2026-05-08 01:38 | -0.98823 | -43.96790 | 37924 ft | 460 kts | 228° |
| 2026-05-08 01:38 | -1.03134 | -44.01479 | 37925 ft | 459 kts | 228° |
| 2026-05-08 01:39 | -1.07490 | -44.06218 | 37924 ft | 461 kts | 228° |
| 2026-05-08 01:39 | -1.11810 | -44.10916 | 37923 ft | 460 kts | 228° |
| 2026-05-08 01:40 | -1.16130 | -44.15616 | 37923 ft | 460 kts | 228° |
| 2026-05-08 01:40 | -1.20481 | -44.20350 | 37922 ft | 461 kts | 228° |
| 2026-05-08 01:41 | -1.24818 | -44.25068 | 37921 ft | 460 kts | 228° |
| 2026-05-08 01:41 | -1.29169 | -44.29803 | 37919 ft | 461 kts | 228° |
| 2026-05-08 01:42 | -1.33478 | -44.34491 | 37913 ft | 461 kts | 228° |
| 2026-05-08 01:42 | -1.37832 | -44.39229 | 37910 ft | 462 kts | 228° |
| 2026-05-08 01:43 | -1.42156 | -44.43934 | 37911 ft | 460 kts | 228° |
| 2026-05-08 01:43 | -1.46492 | -44.48653 | 37915 ft | 461 kts | 228° |
| 2026-05-08 01:44 | -1.50824 | -44.53367 | 37919 ft | 460 kts | 228° |
| 2026-05-08 01:44 | -1.55144 | -44.58070 | 37922 ft | 460 kts | 228° |
| 2026-05-08 01:45 | -1.59482 | -44.62791 | 37925 ft | 461 kts | 228° |
| 2026-05-08 01:45 | -1.63815 | -44.67508 | 37930 ft | 460 kts | 228° |
| 2026-05-08 01:46 | -1.68136 | -44.72212 | 37933 ft | 461 kts | 228° |
| 2026-05-08 01:46 | -1.72470 | -44.76931 | 37934 ft | 461 kts | 227° |
| 2026-05-08 01:47 | -1.76782 | -44.81625 | 37929 ft | 459 kts | 228° |
| 2026-05-08 01:47 | -1.81123 | -44.86351 | 37926 ft | 459 kts | 228° |
| 2026-05-08 01:48 | -1.87581 | -44.93382 | 37927 ft | 458 kts | 228° |
| 2026-05-08 01:48 | -1.91884 | -44.98066 | 37927 ft | 458 kts | 228° |
| 2026-05-08 01:49 | -1.96215 | -45.02781 | 37928 ft | 461 kts | 228° |
| 2026-05-08 01:49 | -2.00542 | -45.07494 | 37928 ft | 460 kts | 227° |
| 2026-05-08 01:50 | -2.04874 | -45.12211 | 37932 ft | 461 kts | 227° |
| 2026-05-08 01:50 | -2.09205 | -45.16927 | 37929 ft | 460 kts | 228° |
| 2026-05-08 01:51 | -2.13526 | -45.21633 | 37929 ft | 460 kts | 228° |
| 2026-05-08 01:51 | -2.17854 | -45.26349 | 37928 ft | 460 kts | 228° |
| 2026-05-08 01:52 | -2.22174 | -45.31054 | 37929 ft | 460 kts | 228° |
| 2026-05-08 01:52 | -2.26502 | -45.35769 | 37930 ft | 461 kts | 228° |
| 2026-05-08 01:53 | -2.30859 | -45.40517 | 37930 ft | 464 kts | 228° |
| 2026-05-08 01:53 | -2.35208 | -45.45257 | 37929 ft | 461 kts | 228° |
| 2026-05-08 01:54 | -2.39520 | -45.49957 | 37929 ft | 460 kts | 228° |
| 2026-05-08 01:54 | -2.43877 | -45.54705 | 37929 ft | 461 kts | 228° |
| 2026-05-08 01:55 | -2.48214 | -45.59434 | 37928 ft | 462 kts | 228° |
| 2026-05-08 01:55 | -2.52534 | -45.64144 | 37930 ft | 461 kts | 228° |
| 2026-05-08 01:56 | -2.56886 | -45.68889 | 37932 ft | 462 kts | 228° |
| 2026-05-08 01:56 | -2.61215 | -45.73610 | 37933 ft | 461 kts | 228° |
| 2026-05-08 01:57 | -2.65555 | -45.78344 | 37932 ft | 462 kts | 228° |
| 2026-05-08 01:57 | -2.69886 | -45.83069 | 37933 ft | 462 kts | 228° |
| 2026-05-08 01:58 | -2.74239 | -45.87817 | 37934 ft | 462 kts | 228° |
| 2026-05-08 01:58 | -2.78596 | -45.92570 | 37931 ft | 461 kts | 228° |
| 2026-05-08 01:59 | -2.82917 | -45.97286 | 37933 ft | 460 kts | 228° |
| 2026-05-08 01:59 | -2.86975 | -46.02191 | 37937 ft | 460 kts | 239° |
| 2026-05-08 02:00 | -2.89403 | -46.08064 | 37941 ft | 460 kts | 258° |
| 2026-05-08 02:00 | -2.89879 | -46.14393 | 37947 ft | 459 kts | 270° |
| 2026-05-08 02:01 | -2.88878 | -46.20704 | 37945 ft | 462 kts | 288° |
| 2026-05-08 02:01 | -2.85879 | -46.26347 | 37947 ft | 464 kts | 307° |
| 2026-05-08 02:02 | -2.81887 | -46.31377 | 37948 ft | 463 kts | 301° |
| 2026-05-08 02:02 | -2.78570 | -46.36888 | 37936 ft | 463 kts | 300° |
| 2026-05-08 02:03 | -2.75298 | -46.42453 | 37934 ft | 463 kts | 300° |
| 2026-05-08 02:03 | -2.72046 | -46.47989 | 37932 ft | 461 kts | 300° |
| 2026-05-08 02:04 | -2.70451 | -46.50705 | 37919 ft | 443 kts | 299° |
| 2026-05-08 02:04 | -2.68922 | -46.53308 | 37922 ft | 431 kts | 300° |
| 2026-05-08 02:04 | -2.65884 | -46.58481 | 37879 ft | 435 kts | 300° |
| 2026-05-08 02:05 | -2.64354 | -46.61086 | 37389 ft | 437 kts | 300° |
| 2026-05-08 02:05 | -2.62822 | -46.63694 | 36919 ft | 435 kts | 300° |
| 2026-05-08 02:05 | -2.61283 | -46.66313 | 36442 ft | 433 kts | 300° |
| 2026-05-08 02:05 | -2.59757 | -46.68910 | 35966 ft | 435 kts | 300° |
| 2026-05-08 02:06 | -2.58239 | -46.71493 | 35488 ft | 436 kts | 300° |
| 2026-05-08 02:06 | -2.56697 | -46.74118 | 35004 ft | 437 kts | 300° |
| 2026-05-08 02:06 | -2.55156 | -46.76741 | 34521 ft | 439 kts | 300° |
| 2026-05-08 02:06 | -2.53605 | -46.79379 | 34039 ft | 440 kts | 300° |
| 2026-05-08 02:07 | -2.52062 | -46.82006 | 33554 ft | 440 kts | 301° |
| 2026-05-08 02:07 | -2.50519 | -46.84630 | 33076 ft | 441 kts | 301° |
| 2026-05-08 02:07 | -2.48960 | -46.87283 | 32593 ft | 443 kts | 301° |
| 2026-05-08 02:07 | -2.47394 | -46.89945 | 32122 ft | 445 kts | 300° |
| 2026-05-08 02:08 | -2.45831 | -46.92603 | 31634 ft | 446 kts | 300° |
| 2026-05-08 02:08 | -2.44256 | -46.95282 | 31142 ft | 447 kts | 300° |
| 2026-05-08 02:08 | -2.42696 | -46.97937 | 30653 ft | 448 kts | 300° |
| 2026-05-08 02:08 | -2.41107 | -47.00639 | 30153 ft | 446 kts | 299° |
| 2026-05-08 02:09 | -2.39549 | -47.03288 | 29663 ft | 442 kts | 299° |
| 2026-05-08 02:09 | -2.38004 | -47.05916 | 29181 ft | 438 kts | 299° |
| 2026-05-08 02:09 | -2.36464 | -47.08534 | 28696 ft | 434 kts | 298° |
| 2026-05-08 02:09 | -2.34933 | -47.11140 | 28218 ft | 432 kts | 298° |
| 2026-05-08 02:10 | -2.33425 | -47.13703 | 27746 ft | 432 kts | 298° |
| 2026-05-08 02:10 | -2.31899 | -47.16299 | 27266 ft | 432 kts | 299° |
| 2026-05-08 02:10 | -2.30379 | -47.18882 | 26788 ft | 430 kts | 299° |
| 2026-05-08 02:10 | -2.28865 | -47.21457 | 26314 ft | 429 kts | 299° |
| 2026-05-08 02:11 | -2.27356 | -47.24023 | 25840 ft | 428 kts | 299° |
| 2026-05-08 02:11 | -2.25870 | -47.26548 | 25375 ft | 427 kts | 299° |
| 2026-05-08 02:11 | -2.24368 | -47.29101 | 24903 ft | 425 kts | 300° |
| 2026-05-08 02:11 | -2.22855 | -47.31672 | 24428 ft | 425 kts | 300° |
| 2026-05-08 02:12 | -2.21373 | -47.34192 | 23964 ft | 423 kts | 300° |
| 2026-05-08 02:12 | -2.20369 | -47.35898 | 23650 ft | 423 kts | 300° |
| 2026-05-08 02:12 | -2.18403 | -47.39240 | 23040 ft | 421 kts | 300° |
| 2026-05-08 02:12 | -2.16916 | -47.41767 | 22572 ft | 420 kts | 300° |
| 2026-05-08 02:13 | -2.15448 | -47.44262 | 22117 ft | 418 kts | 300° |
| 2026-05-08 02:13 | -2.13975 | -47.46765 | 21653 ft | 414 kts | 300° |
| 2026-05-08 02:13 | -2.12522 | -47.49233 | 21194 ft | 409 kts | 300° |
| 2026-05-08 02:13 | -2.11098 | -47.51651 | 20746 ft | 404 kts | 300° |
| 2026-05-08 02:14 | -2.09674 | -47.54071 | 20295 ft | 400 kts | 300° |
| 2026-05-08 02:14 | -2.08274 | -47.56450 | 19852 ft | 395 kts | 300° |
| 2026-05-08 02:14 | -2.06977 | -47.58825 | 19420 ft | 391 kts | 295° |
| 2026-05-08 02:14 | -2.05866 | -47.61285 | 19000 ft | 387 kts | 294° |
| 2026-05-08 02:15 | -2.04759 | -47.63746 | 18569 ft | 383 kts | 294° |
| 2026-05-08 02:15 | -2.03678 | -47.66145 | 18148 ft | 379 kts | 294° |
| 2026-05-08 02:15 | -2.02604 | -47.68528 | 17729 ft | 374 kts | 295° |
| 2026-05-08 02:15 | -2.01541 | -47.70887 | 17317 ft | 370 kts | 295° |
| 2026-05-08 02:16 | -2.00487 | -47.73226 | 16910 ft | 369 kts | 295° |
| 2026-05-08 02:16 | -1.99439 | -47.75550 | 16504 ft | 368 kts | 295° |
| 2026-05-08 02:16 | -1.98391 | -47.77876 | 16097 ft | 367 kts | 295° |
| 2026-05-08 02:16 | -1.97341 | -47.80205 | 15690 ft | 366 kts | 295° |
| 2026-05-08 02:17 | -1.96306 | -47.82502 | 15289 ft | 365 kts | 295° |
| 2026-05-08 02:17 | -1.95258 | -47.84826 | 14882 ft | 364 kts | 295° |
| 2026-05-08 02:17 | -1.94231 | -47.87103 | 14484 ft | 363 kts | 295° |
| 2026-05-08 02:17 | -1.93192 | -47.89408 | 14082 ft | 362 kts | 295° |
| 2026-05-08 02:18 | -1.92157 | -47.91704 | 13680 ft | 361 kts | 295° |
| 2026-05-08 02:18 | -1.91129 | -47.93984 | 13281 ft | 359 kts | 295° |
| 2026-05-08 02:18 | -1.90113 | -47.96238 | 12886 ft | 357 kts | 295° |
| 2026-05-08 02:18 | -1.89100 | -47.98483 | 12494 ft | 356 kts | 295° |
| 2026-05-08 02:19 | -1.88079 | -48.00747 | 12099 ft | 355 kts | 295° |
| 2026-05-08 02:19 | -1.87079 | -48.02964 | 11718 ft | 352 kts | 295° |
| 2026-05-08 02:19 | -1.86079 | -48.05179 | 11328 ft | 346 kts | 295° |
| 2026-05-08 02:19 | -1.85101 | -48.07346 | 10948 ft | 338 kts | 295° |
| 2026-05-08 02:20 | -1.84149 | -48.09453 | 10576 ft | 329 kts | 295° |
| 2026-05-08 02:20 | -1.83224 | -48.11502 | 10221 ft | 321 kts | 295° |
| 2026-05-08 02:20 | -1.82310 | -48.13527 | 9867 ft | 313 kts | 295° |
| 2026-05-08 02:20 | -1.81423 | -48.15491 | 9526 ft | 308 kts | 295° |
| 2026-05-08 02:21 | -1.80545 | -48.17435 | 9192 ft | 307 kts | 295° |
| 2026-05-08 02:21 | -1.79673 | -48.19366 | 8857 ft | 306 kts | 295° |
| 2026-05-08 02:21 | -1.78798 | -48.21301 | 8518 ft | 305 kts | 295° |
| 2026-05-08 02:21 | -1.77931 | -48.23221 | 8183 ft | 304 kts | 295° |
| 2026-05-08 02:22 | -1.77062 | -48.25145 | 7850 ft | 302 kts | 295° |
| 2026-05-08 02:22 | -1.76196 | -48.27063 | 7518 ft | 301 kts | 295° |
| 2026-05-08 02:22 | -1.75342 | -48.28953 | 7188 ft | 299 kts | 295° |
| 2026-05-08 02:22 | -1.74441 | -48.30834 | 6869 ft | 297 kts | 300° |
| 2026-05-08 02:23 | -1.73422 | -48.32592 | 6885 ft | 294 kts | 301° |
| 2026-05-08 02:23 | -1.72389 | -48.34369 | 6887 ft | 296 kts | 301° |
| 2026-05-08 02:23 | -1.71346 | -48.36163 | 6892 ft | 297 kts | 301° |
| 2026-05-08 02:23 | -1.70313 | -48.37941 | 6896 ft | 297 kts | 300° |
| 2026-05-08 02:24 | -1.69267 | -48.39740 | 6897 ft | 299 kts | 300° |
| 2026-05-08 02:24 | -1.68226 | -48.41533 | 6898 ft | 298 kts | 301° |
| 2026-05-08 02:24 | -1.67187 | -48.43319 | 6855 ft | 300 kts | 301° |
| 2026-05-08 02:24 | -1.66133 | -48.45132 | 6586 ft | 299 kts | 301° |
| 2026-05-08 02:25 | -1.65096 | -48.46917 | 6274 ft | 297 kts | 301° |
| 2026-05-08 02:25 | -1.64065 | -48.48687 | 5984 ft | 293 kts | 301° |
| 2026-05-08 02:25 | -1.63038 | -48.50439 | 5689 ft | 292 kts | 301° |
| 2026-05-08 02:25 | -1.62016 | -48.52182 | 5372 ft | 289 kts | 301° |
| 2026-05-08 02:26 | -1.61002 | -48.53912 | 5075 ft | 288 kts | 301° |
| 2026-05-08 02:26 | -1.59953 | -48.55618 | 4773 ft | 285 kts | 311° |
| 2026-05-08 02:26 | -1.58405 | -48.56757 | 4541 ft | 275 kts | 336° |
| 2026-05-08 02:26 | -1.56682 | -48.57562 | 4248 ft | 266 kts | 338° |
| 2026-05-08 02:27 | -1.55024 | -48.58322 | 3962 ft | 259 kts | 338° |
| 2026-05-08 02:27 | -1.53414 | -48.59057 | 3679 ft | 252 kts | 339° |
| 2026-05-08 02:27 | -1.51807 | -48.59738 | 3392 ft | 243 kts | 350° |
| 2026-05-08 02:27 | -1.50229 | -48.59602 | 3143 ft | 224 kts | 28° |
| 2026-05-08 02:28 | -1.49018 | -48.58679 | 2819 ft | 213 kts | 44° |
| 2026-05-08 02:28 | -1.47970 | -48.57689 | 2541 ft | 203 kts | 47° |
| 2026-05-08 02:28 | -1.46990 | -48.56694 | 2322 ft | 195 kts | 46° |
| 2026-05-08 02:28 | -1.46050 | -48.55754 | 2076 ft | 186 kts | 46° |
| 2026-05-08 02:29 | -1.45202 | -48.54905 | 1846 ft | 159 kts | 46° |
| 2026-05-08 02:29 | -1.44456 | -48.54156 | 1604 ft | 147 kts | 46° |
| 2026-05-08 02:29 | -1.43778 | -48.53478 | 1404 ft | 130 kts | 46° |
| 2026-05-08 02:29 | -1.43161 | -48.52860 | 1226 ft | 121 kts | 46° |
| 2026-05-08 02:30 | -1.42566 | -48.52264 | 1076 ft | 122 kts | 46° |
| 2026-05-08 02:30 | -1.41955 | -48.51651 | 921 ft | 125 kts | 46° |
| 2026-05-08 02:30 | -1.41342 | -48.51038 | 761 ft | 126 kts | 46° |
| 2026-05-08 02:30 | -1.40722 | -48.50417 | 593 ft | 125 kts | 46° |
| 2026-05-08 02:31 | -1.40098 | -48.49800 | 411 ft | 126 kts | 46° |
| 2026-05-08 02:31 | -1.39471 | -48.49174 | 249 ft | 129 kts | 47° |
| 2026-05-08 02:31 | -1.38833 | -48.48527 | 86 ft | 129 kts | 47° |
| 2026-05-08 02:31 | -1.38254 | -48.47935 | 47 ft | 99 kts | 46° |
| 2026-05-08 02:32 | -1.37794 | -48.47474 | 47 ft | 66 kts | 45° |
| 2026-05-08 02:32 | -1.37617 | -48.47290 | 51 ft | 15 kts | 41° |
| 2026-05-08 02:32 | -1.37565 | -48.47249 | 51 ft | 2 kts | 118° |
| 2026-05-08 02:32 | -1.37592 | -48.47263 | 51 ft | 7 kts | 228° |
| 2026-05-08 02:33 | -1.37644 | -48.47317 | 50 ft | 14 kts | 227° |
| 2026-05-08 02:33 | -1.37730 | -48.47406 | 48 ft | 21 kts | 225° |
| 2026-05-08 02:33 | -1.37850 | -48.47527 | 46 ft | 27 kts | 226° |
| 2026-05-08 02:33 | -1.38021 | -48.47621 | 47 ft | 29 kts | 182° |
| 2026-05-08 02:34 | -1.38231 | -48.47637 | 47 ft | 30 kts | 185° |
| 2026-05-08 02:34 | -1.38449 | -48.47656 | 45 ft | 32 kts | 184° |
| 2026-05-08 02:34 | -1.38631 | -48.47670 | 43 ft | 11 kts | 186° |
| 2026-05-08 02:34 | -1.38668 | -48.47733 | 43 ft | 12 kts | 267° |
| 2026-05-08 02:35 | -1.38671 | -48.47826 | 43 ft | 14 kts | 266° |
| 2026-05-08 02:35 | -1.38675 | -48.47930 | 43 ft | 15 kts | 269° |
| 2026-05-08 02:35 | -1.38677 | -48.48029 | 44 ft | 10 kts | 269° |
| 2026-05-08 02:35 | -1.38700 | -48.48078 | 45 ft | 5 kts | 198° |
| 2026-05-08 02:36 | -1.38721 | -48.48087 | 45 ft | 1 kts | 215° |
| 2026-05-08 02:36 | -1.38730 | -48.48092 | 45 ft | 0 kts | 214° |
| 2026-05-08 02:36 | -1.38730 | -48.48093 | 45 ft | 0 kts | 214° |